sensor_id;sensor_type;location;lat;lon;timestamp;P1;durP1;ratioP1;P2;durP2;ratioP2
23115;SDS011;11727;52.134;5.052;2022-11-20T00:00:08;10.93;;;5.30;;
23115;SDS011;11727;52.134;5.052;2022-11-20T00:02:34;12.27;;;5.47;;
23115;SDS011;11727;52.134;5.052;2022-11-20T00:05:00;11.70;;;4.88;;
23115;SDS011;11727;52.134;5.052;2022-11-20T00:07:25;17.50;;;5.55;;
23115;SDS011;11727;52.134;5.052;2022-11-20T00:09:51;13.48;;;5.15;;
23115;SDS011;11727;52.134;5.052;2022-11-20T00:12:16;13.48;;;5.30;;
23115;SDS011;11727;52.134;5.052;2022-11-20T00:14:42;13.80;;;5.18;;
23115;SDS011;11727;52.134;5.052;2022-11-20T00:17:07;13.65;;;4.85;;
23115;SDS011;11727;52.134;5.052;2022-11-20T00:19:33;12.80;;;4.88;;
23115;SDS011;11727;52.134;5.052;2022-11-20T00:21:58;11.07;;;4.93;;
23115;SDS011;11727;52.134;5.052;2022-11-20T00:24:24;15.60;;;6.40;;
23115;SDS011;11727;52.134;5.052;2022-11-20T00:26:49;14.73;;;5.50;;
23115;SDS011;11727;52.134;5.052;2022-11-20T00:29:15;17.42;;;6.20;;
23115;SDS011;11727;52.134;5.052;2022-11-20T00:31:41;21.20;;;6.50;;
23115;SDS011;11727;52.134;5.052;2022-11-20T00:34:06;12.07;;;5.20;;
23115;SDS011;11727;52.134;5.052;2022-11-20T00:36:32;14.50;;;6.40;;
23115;SDS011;11727;52.134;5.052;2022-11-20T00:38:59;12.07;;;5.70;;
23115;SDS011;11727;52.134;5.052;2022-11-20T00:41:25;12.20;;;5.75;;
23115;SDS011;11727;52.134;5.052;2022-11-20T00:43:53;11.52;;;4.60;;
23115;SDS011;11727;52.134;5.052;2022-11-20T00:46:21;16.58;;;6.57;;
23115;SDS011;11727;52.134;5.052;2022-11-20T00:48:48;12.25;;;4.70;;
23115;SDS011;11727;52.134;5.052;2022-11-20T00:51:14;12.40;;;5.15;;
23115;SDS011;11727;52.134;5.052;2022-11-20T00:53:42;13.70;;;5.07;;
23115;SDS011;11727;52.134;5.052;2022-11-20T00:56:10;12.25;;;4.22;;
23115;SDS011;11727;52.134;5.052;2022-11-20T00:58:38;12.43;;;4.45;;
23115;SDS011;11727;52.134;5.052;2022-11-20T01:01:06;12.73;;;4.80;;
23115;SDS011;11727;52.134;5.052;2022-11-20T01:03:40;12.10;;;5.50;;
23115;SDS011;11727;52.134;5.052;2022-11-20T01:06:11;11.27;;;5.18;;
23115;SDS011;11727;52.134;5.052;2022-11-20T01:08:42;14.77;;;5.00;;
23115;SDS011;11727;52.134;5.052;2022-11-20T01:11:13;11.23;;;5.20;;
23115;SDS011;11727;52.134;5.052;2022-11-20T01:13:40;14.23;;;5.40;;
23115;SDS011;11727;52.134;5.052;2022-11-20T01:18:33;10.52;;;4.97;;
23115;SDS011;11727;52.134;5.052;2022-11-20T01:21:06;10.27;;;4.68;;
23115;SDS011;11727;52.134;5.052;2022-11-20T01:23:41;10.30;;;4.72;;
23115;SDS011;11727;52.134;5.052;2022-11-20T01:28:34;10.55;;;4.38;;
23115;SDS011;11727;52.134;5.052;2022-11-20T01:31:01;14.93;;;5.57;;
23115;SDS011;11727;52.134;5.052;2022-11-20T01:33:34;8.90;;;4.32;;
23115;SDS011;11727;52.134;5.052;2022-11-20T01:36:04;11.48;;;3.97;;
23115;SDS011;11727;52.134;5.052;2022-11-20T01:38:30;14.75;;;4.75;;
23115;SDS011;11727;52.134;5.052;2022-11-20T01:40:56;10.23;;;4.80;;
23115;SDS011;11727;52.134;5.052;2022-11-20T01:43:21;11.13;;;4.65;;
23115;SDS011;11727;52.134;5.052;2022-11-20T01:48:35;11.30;;;5.45;;
23115;SDS011;11727;52.134;5.052;2022-11-20T01:51:07;13.00;;;5.00;;
23115;SDS011;11727;52.134;5.052;2022-11-20T01:53:40;11.25;;;4.32;;
23115;SDS011;11727;52.134;5.052;2022-11-20T01:56:07;11.15;;;4.95;;
23115;SDS011;11727;52.134;5.052;2022-11-20T01:58:35;16.05;;;5.07;;
23115;SDS011;11727;52.134;5.052;2022-11-20T02:01:05;15.07;;;5.90;;
23115;SDS011;11727;52.134;5.052;2022-11-20T02:03:31;15.90;;;4.68;;
23115;SDS011;11727;52.134;5.052;2022-11-20T02:08:41;10.45;;;4.50;;
23115;SDS011;11727;52.134;5.052;2022-11-20T02:11:06;9.68;;;4.40;;
23115;SDS011;11727;52.134;5.052;2022-11-20T02:13:33;12.27;;;4.63;;
23115;SDS011;11727;52.134;5.052;2022-11-20T02:16:11;10.55;;;5.18;;
23115;SDS011;11727;52.134;5.052;2022-11-20T02:18:44;9.37;;;4.10;;
23115;SDS011;11727;52.134;5.052;2022-11-20T02:24:02;10.18;;;4.03;;
23115;SDS011;11727;52.134;5.052;2022-11-20T02:26:48;13.23;;;4.68;;
23115;SDS011;11727;52.134;5.052;2022-11-20T02:29:42;12.85;;;5.28;;
23115;SDS011;11727;52.134;5.052;2022-11-20T02:32:20;13.88;;;4.80;;
23115;SDS011;11727;52.134;5.052;2022-11-20T02:34:53;10.43;;;4.70;;
23115;SDS011;11727;52.134;5.052;2022-11-20T02:37:22;11.23;;;5.25;;
23115;SDS011;11727;52.134;5.052;2022-11-20T02:39:54;11.90;;;5.07;;
23115;SDS011;11727;52.134;5.052;2022-11-20T02:42:20;16.45;;;5.65;;
23115;SDS011;11727;52.134;5.052;2022-11-20T02:44:46;11.73;;;4.55;;
23115;SDS011;11727;52.134;5.052;2022-11-20T02:47:11;12.05;;;4.85;;
23115;SDS011;11727;52.134;5.052;2022-11-20T02:49:37;12.23;;;5.03;;
23115;SDS011;11727;52.134;5.052;2022-11-20T02:52:02;11.07;;;5.20;;
23115;SDS011;11727;52.134;5.052;2022-11-20T02:54:28;9.15;;;4.30;;
23115;SDS011;11727;52.134;5.052;2022-11-20T02:56:54;11.02;;;5.18;;
23115;SDS011;11727;52.134;5.052;2022-11-20T02:59:19;14.60;;;5.20;;
23115;SDS011;11727;52.134;5.052;2022-11-20T03:01:45;10.82;;;4.15;;
23115;SDS011;11727;52.134;5.052;2022-11-20T03:04:11;8.35;;;4.22;;
23115;SDS011;11727;52.134;5.052;2022-11-20T03:06:36;12.55;;;5.43;;
23115;SDS011;11727;52.134;5.052;2022-11-20T03:09:02;12.65;;;4.82;;
23115;SDS011;11727;52.134;5.052;2022-11-20T03:11:28;14.48;;;4.45;;
23115;SDS011;11727;52.134;5.052;2022-11-20T03:13:53;11.10;;;5.05;;
23115;SDS011;11727;52.134;5.052;2022-11-20T03:16:20;10.40;;;4.75;;
23115;SDS011;11727;52.134;5.052;2022-11-20T03:21:13;8.95;;;4.78;;
23115;SDS011;11727;52.134;5.052;2022-11-20T03:26:18;8.45;;;4.65;;
23115;SDS011;11727;52.134;5.052;2022-11-20T03:28:50;12.25;;;4.78;;
23115;SDS011;11727;52.134;5.052;2022-11-20T03:31:17;12.85;;;4.97;;
23115;SDS011;11727;52.134;5.052;2022-11-20T03:33:45;10.57;;;3.83;;
23115;SDS011;11727;52.134;5.052;2022-11-20T03:36:12;14.57;;;4.38;;
23115;SDS011;11727;52.134;5.052;2022-11-20T03:38:38;13.10;;;5.10;;
23115;SDS011;11727;52.134;5.052;2022-11-20T03:41:05;15.77;;;4.00;;
23115;SDS011;11727;52.134;5.052;2022-11-20T03:43:38;11.63;;;5.32;;
23115;SDS011;11727;52.134;5.052;2022-11-20T03:46:04;13.90;;;5.80;;
23115;SDS011;11727;52.134;5.052;2022-11-20T03:48:30;14.95;;;4.55;;
23115;SDS011;11727;52.134;5.052;2022-11-20T03:53:42;13.60;;;4.70;;
23115;SDS011;11727;52.134;5.052;2022-11-20T03:56:09;10.98;;;5.40;;
23115;SDS011;11727;52.134;5.052;2022-11-20T03:58:36;12.27;;;5.18;;
23115;SDS011;11727;52.134;5.052;2022-11-20T04:01:13;12.07;;;5.05;;
23115;SDS011;11727;52.134;5.052;2022-11-20T04:03:41;16.23;;;4.10;;
23115;SDS011;11727;52.134;5.052;2022-11-20T04:06:08;13.80;;;5.80;;
23115;SDS011;11727;52.134;5.052;2022-11-20T04:08:37;12.18;;;5.00;;
23115;SDS011;11727;52.134;5.052;2022-11-20T04:11:10;10.68;;;4.55;;
23115;SDS011;11727;52.134;5.052;2022-11-20T04:13:46;10.60;;;4.30;;
23115;SDS011;11727;52.134;5.052;2022-11-20T04:16:13;14.68;;;4.78;;
23115;SDS011;11727;52.134;5.052;2022-11-20T04:18:39;13.15;;;4.82;;
23115;SDS011;11727;52.134;5.052;2022-11-20T04:21:05;12.95;;;4.82;;
23115;SDS011;11727;52.134;5.052;2022-11-20T04:23:31;12.18;;;5.65;;
23115;SDS011;11727;52.134;5.052;2022-11-20T04:28:28;20.17;;;4.78;;
23115;SDS011;11727;52.134;5.052;2022-11-20T04:30:54;12.10;;;5.32;;
23115;SDS011;11727;52.134;5.052;2022-11-20T04:33:26;9.98;;;5.25;;
23115;SDS011;11727;52.134;5.052;2022-11-20T04:35:51;14.50;;;5.38;;
23115;SDS011;11727;52.134;5.052;2022-11-20T04:38:17;11.95;;;4.53;;
23115;SDS011;11727;52.134;5.052;2022-11-20T04:40:42;12.65;;;4.38;;
23115;SDS011;11727;52.134;5.052;2022-11-20T04:43:08;10.43;;;4.38;;
23115;SDS011;11727;52.134;5.052;2022-11-20T04:45:33;10.25;;;4.50;;
23115;SDS011;11727;52.134;5.052;2022-11-20T04:47:59;16.52;;;4.85;;
23115;SDS011;11727;52.134;5.052;2022-11-20T04:50:24;8.82;;;3.80;;
23115;SDS011;11727;52.134;5.052;2022-11-20T04:52:50;10.00;;;4.40;;
23115;SDS011;11727;52.134;5.052;2022-11-20T04:55:16;10.18;;;4.93;;
23115;SDS011;11727;52.134;5.052;2022-11-20T04:57:41;12.27;;;4.65;;
23115;SDS011;11727;52.134;5.052;2022-11-20T05:00:07;9.40;;;4.45;;
23115;SDS011;11727;52.134;5.052;2022-11-20T05:02:33;7.88;;;4.03;;
23115;SDS011;11727;52.134;5.052;2022-11-20T05:04:58;10.82;;;4.10;;
23115;SDS011;11727;52.134;5.052;2022-11-20T05:07:24;9.40;;;4.80;;
23115;SDS011;11727;52.134;5.052;2022-11-20T05:09:49;12.30;;;4.25;;
23115;SDS011;11727;52.134;5.052;2022-11-20T05:12:15;10.45;;;4.65;;
23115;SDS011;11727;52.134;5.052;2022-11-20T05:14:40;13.48;;;5.78;;
23115;SDS011;11727;52.134;5.052;2022-11-20T05:17:09;13.18;;;4.40;;
23115;SDS011;11727;52.134;5.052;2022-11-20T05:19:35;11.57;;;4.90;;
23115;SDS011;11727;52.134;5.052;2022-11-20T05:22:01;11.98;;;4.60;;
23115;SDS011;11727;52.134;5.052;2022-11-20T05:24:26;11.95;;;5.22;;
23115;SDS011;11727;52.134;5.052;2022-11-20T05:26:52;12.57;;;5.57;;
23115;SDS011;11727;52.134;5.052;2022-11-20T05:29:17;12.82;;;4.25;;
23115;SDS011;11727;52.134;5.052;2022-11-20T05:31:43;13.00;;;5.50;;
23115;SDS011;11727;52.134;5.052;2022-11-20T05:34:08;14.35;;;5.13;;
23115;SDS011;11727;52.134;5.052;2022-11-20T05:36:34;10.38;;;4.25;;
23115;SDS011;11727;52.134;5.052;2022-11-20T05:39:00;10.98;;;4.22;;
23115;SDS011;11727;52.134;5.052;2022-11-20T05:41:25;12.02;;;5.25;;
23115;SDS011;11727;52.134;5.052;2022-11-20T05:43:51;11.82;;;5.00;;
23115;SDS011;11727;52.134;5.052;2022-11-20T05:46:20;10.88;;;4.45;;
23115;SDS011;11727;52.134;5.052;2022-11-20T05:48:46;11.05;;;4.68;;
23115;SDS011;11727;52.134;5.052;2022-11-20T05:51:13;12.55;;;4.38;;
23115;SDS011;11727;52.134;5.052;2022-11-20T05:53:41;12.48;;;4.55;;
23115;SDS011;11727;52.134;5.052;2022-11-20T05:56:09;12.40;;;4.88;;
23115;SDS011;11727;52.134;5.052;2022-11-20T05:58:37;11.32;;;4.70;;
23115;SDS011;11727;52.134;5.052;2022-11-20T06:01:04;10.23;;;4.78;;
23115;SDS011;11727;52.134;5.052;2022-11-20T06:03:32;11.73;;;4.40;;
23115;SDS011;11727;52.134;5.052;2022-11-20T06:05:58;12.82;;;4.63;;
23115;SDS011;11727;52.134;5.052;2022-11-20T06:08:24;13.17;;;5.00;;
23115;SDS011;11727;52.134;5.052;2022-11-20T06:10:50;12.98;;;5.18;;
23115;SDS011;11727;52.134;5.052;2022-11-20T06:13:15;15.20;;;5.75;;
23115;SDS011;11727;52.134;5.052;2022-11-20T06:15:41;14.77;;;7.00;;
23115;SDS011;11727;52.134;5.052;2022-11-20T06:18:06;18.15;;;6.25;;
23115;SDS011;11727;52.134;5.052;2022-11-20T06:20:32;18.90;;;6.00;;
23115;SDS011;11727;52.134;5.052;2022-11-20T06:22:57;14.88;;;5.47;;
23115;SDS011;11727;52.134;5.052;2022-11-20T06:25:23;19.83;;;6.03;;
23115;SDS011;11727;52.134;5.052;2022-11-20T06:27:48;14.82;;;5.47;;
23115;SDS011;11727;52.134;5.052;2022-11-20T06:30:14;14.40;;;5.68;;
23115;SDS011;11727;52.134;5.052;2022-11-20T06:32:40;12.98;;;4.95;;
23115;SDS011;11727;52.134;5.052;2022-11-20T06:35:05;12.77;;;5.40;;
23115;SDS011;11727;52.134;5.052;2022-11-20T06:37:31;10.80;;;4.78;;
23115;SDS011;11727;52.134;5.052;2022-11-20T06:39:57;15.95;;;4.97;;
23115;SDS011;11727;52.134;5.052;2022-11-20T06:42:22;14.95;;;5.82;;
23115;SDS011;11727;52.134;5.052;2022-11-20T06:44:48;14.38;;;5.82;;
23115;SDS011;11727;52.134;5.052;2022-11-20T06:47:14;14.60;;;6.45;;
23115;SDS011;11727;52.134;5.052;2022-11-20T06:49:39;11.98;;;4.50;;
23115;SDS011;11727;52.134;5.052;2022-11-20T06:52:05;13.55;;;5.57;;
23115;SDS011;11727;52.134;5.052;2022-11-20T06:54:30;13.38;;;5.43;;
23115;SDS011;11727;52.134;5.052;2022-11-20T06:56:56;13.73;;;5.07;;
23115;SDS011;11727;52.134;5.052;2022-11-20T06:59:21;13.40;;;5.60;;
23115;SDS011;11727;52.134;5.052;2022-11-20T07:01:47;11.43;;;4.70;;
23115;SDS011;11727;52.134;5.052;2022-11-20T07:04:12;11.88;;;5.32;;
23115;SDS011;11727;52.134;5.052;2022-11-20T07:06:38;12.02;;;5.43;;
23115;SDS011;11727;52.134;5.052;2022-11-20T07:09:03;12.93;;;4.82;;
23115;SDS011;11727;52.134;5.052;2022-11-20T07:11:29;13.93;;;5.22;;
23115;SDS011;11727;52.134;5.052;2022-11-20T07:13:56;15.85;;;5.93;;
23115;SDS011;11727;52.134;5.052;2022-11-20T07:16:21;11.60;;;4.70;;
23115;SDS011;11727;52.134;5.052;2022-11-20T07:18:47;14.73;;;5.60;;
23115;SDS011;11727;52.134;5.052;2022-11-20T07:21:13;13.88;;;5.72;;
23115;SDS011;11727;52.134;5.052;2022-11-20T07:23:38;23.33;;;5.75;;
23115;SDS011;11727;52.134;5.052;2022-11-20T07:26:08;13.05;;;5.35;;
23115;SDS011;11727;52.134;5.052;2022-11-20T07:28:35;12.57;;;5.63;;
23115;SDS011;11727;52.134;5.052;2022-11-20T07:31:01;14.93;;;5.25;;
23115;SDS011;11727;52.134;5.052;2022-11-20T07:33:27;12.43;;;5.00;;
23115;SDS011;11727;52.134;5.052;2022-11-20T07:35:53;11.38;;;4.13;;
23115;SDS011;11727;52.134;5.052;2022-11-20T07:38:18;14.73;;;5.65;;
23115;SDS011;11727;52.134;5.052;2022-11-20T07:40:44;15.82;;;5.93;;
23115;SDS011;11727;52.134;5.052;2022-11-20T07:43:10;12.90;;;5.38;;
23115;SDS011;11727;52.134;5.052;2022-11-20T07:45:35;11.82;;;4.95;;
23115;SDS011;11727;52.134;5.052;2022-11-20T07:48:01;11.20;;;5.30;;
23115;SDS011;11727;52.134;5.052;2022-11-20T07:50:26;13.73;;;5.32;;
23115;SDS011;11727;52.134;5.052;2022-11-20T07:52:52;15.98;;;6.40;;
23115;SDS011;11727;52.134;5.052;2022-11-20T07:55:24;15.55;;;6.28;;
23115;SDS011;11727;52.134;5.052;2022-11-20T07:57:54;13.02;;;5.93;;
23115;SDS011;11727;52.134;5.052;2022-11-20T08:00:20;13.10;;;6.03;;
23115;SDS011;11727;52.134;5.052;2022-11-20T08:02:46;11.63;;;5.28;;
23115;SDS011;11727;52.134;5.052;2022-11-20T08:05:12;15.10;;;6.95;;
23115;SDS011;11727;52.134;5.052;2022-11-20T08:07:38;18.50;;;6.75;;
23115;SDS011;11727;52.134;5.052;2022-11-20T08:10:05;10.95;;;4.85;;
23115;SDS011;11727;52.134;5.052;2022-11-20T08:12:31;11.70;;;5.63;;
23115;SDS011;11727;52.134;5.052;2022-11-20T08:15:15;15.80;;;6.10;;
23115;SDS011;11727;52.134;5.052;2022-11-20T08:17:41;18.55;;;6.97;;
23115;SDS011;11727;52.134;5.052;2022-11-20T08:20:07;11.98;;;6.05;;
23115;SDS011;11727;52.134;5.052;2022-11-20T08:22:33;16.48;;;6.68;;
23115;SDS011;11727;52.134;5.052;2022-11-20T08:24:58;15.07;;;6.30;;
23115;SDS011;11727;52.134;5.052;2022-11-20T08:27:24;15.02;;;6.57;;
23115;SDS011;11727;52.134;5.052;2022-11-20T08:29:49;13.40;;;6.25;;
23115;SDS011;11727;52.134;5.052;2022-11-20T08:32:15;16.08;;;6.78;;
23115;SDS011;11727;52.134;5.052;2022-11-20T08:34:40;16.85;;;7.53;;
23115;SDS011;11727;52.134;5.052;2022-11-20T08:37:06;13.60;;;5.63;;
23115;SDS011;11727;52.134;5.052;2022-11-20T08:39:31;20.92;;;6.90;;
23115;SDS011;11727;52.134;5.052;2022-11-20T08:41:57;15.45;;;6.20;;
23115;SDS011;11727;52.134;5.052;2022-11-20T08:44:23;15.25;;;6.60;;
23115;SDS011;11727;52.134;5.052;2022-11-20T08:46:48;16.30;;;6.60;;
23115;SDS011;11727;52.134;5.052;2022-11-20T08:49:14;21.67;;;7.03;;
23115;SDS011;11727;52.134;5.052;2022-11-20T08:51:39;19.95;;;6.88;;
23115;SDS011;11727;52.134;5.052;2022-11-20T08:54:06;19.50;;;7.57;;
23115;SDS011;11727;52.134;5.052;2022-11-20T08:56:32;13.25;;;6.13;;
23115;SDS011;11727;52.134;5.052;2022-11-20T08:58:58;15.70;;;6.97;;
23115;SDS011;11727;52.134;5.052;2022-11-20T09:01:26;18.08;;;6.85;;
23115;SDS011;11727;52.134;5.052;2022-11-20T09:03:54;13.85;;;6.40;;
23115;SDS011;11727;52.134;5.052;2022-11-20T09:06:21;15.43;;;7.13;;
23115;SDS011;11727;52.134;5.052;2022-11-20T09:08:51;14.43;;;7.13;;
23115;SDS011;11727;52.134;5.052;2022-11-20T09:11:19;15.00;;;6.72;;
23115;SDS011;11727;52.134;5.052;2022-11-20T09:13:45;16.90;;;7.20;;
23115;SDS011;11727;52.134;5.052;2022-11-20T09:16:11;15.25;;;7.50;;
23115;SDS011;11727;52.134;5.052;2022-11-20T09:18:36;15.70;;;6.18;;
23115;SDS011;11727;52.134;5.052;2022-11-20T09:21:04;16.73;;;6.90;;
23115;SDS011;11727;52.134;5.052;2022-11-20T09:23:35;26.73;;;6.45;;
23115;SDS011;11727;52.134;5.052;2022-11-20T09:26:03;13.73;;;6.22;;
23115;SDS011;11727;52.134;5.052;2022-11-20T09:30:55;16.58;;;7.53;;
23115;SDS011;11727;52.134;5.052;2022-11-20T09:33:20;17.30;;;7.05;;
23115;SDS011;11727;52.134;5.052;2022-11-20T09:35:46;16.25;;;7.13;;
23115;SDS011;11727;52.134;5.052;2022-11-20T09:38:15;15.20;;;7.05;;
23115;SDS011;11727;52.134;5.052;2022-11-20T09:40:44;18.02;;;7.05;;
23115;SDS011;11727;52.134;5.052;2022-11-20T09:43:46;18.92;;;7.75;;
23115;SDS011;11727;52.134;5.052;2022-11-20T09:46:47;17.30;;;7.53;;
23115;SDS011;11727;52.134;5.052;2022-11-20T09:49:32;19.08;;;7.35;;
23115;SDS011;11727;52.134;5.052;2022-11-20T09:54:50;15.73;;;6.90;;
23115;SDS011;11727;52.134;5.052;2022-11-20T09:57:19;17.90;;;7.43;;
23115;SDS011;11727;52.134;5.052;2022-11-20T09:59:55;17.73;;;7.05;;
23115;SDS011;11727;52.134;5.052;2022-11-20T10:05:16;20.05;;;7.18;;
23115;SDS011;11727;52.134;5.052;2022-11-20T10:10:35;19.77;;;8.25;;
23115;SDS011;11727;52.134;5.052;2022-11-20T10:21:03;15.38;;;7.25;;
23115;SDS011;11727;52.134;5.052;2022-11-20T10:26:21;15.65;;;7.55;;
23115;SDS011;11727;52.134;5.052;2022-11-20T10:29:10;16.38;;;6.28;;
23115;SDS011;11727;52.134;5.052;2022-11-20T10:31:44;21.13;;;7.68;;
23115;SDS011;11727;52.134;5.052;2022-11-20T10:34:23;19.02;;;7.80;;
23115;SDS011;11727;52.134;5.052;2022-11-20T10:36:55;16.60;;;7.80;;
23115;SDS011;11727;52.134;5.052;2022-11-20T10:39:27;19.10;;;7.90;;
23115;SDS011;11727;52.134;5.052;2022-11-20T10:42:00;18.10;;;7.30;;
23115;SDS011;11727;52.134;5.052;2022-11-20T10:44:27;18.00;;;7.88;;
23115;SDS011;11727;52.134;5.052;2022-11-20T10:47:16;20.00;;;7.82;;
23115;SDS011;11727;52.134;5.052;2022-11-20T10:49:44;17.38;;;8.07;;
23115;SDS011;11727;52.134;5.052;2022-11-20T10:54:47;16.50;;;7.78;;
23115;SDS011;11727;52.134;5.052;2022-11-20T11:00:30;16.08;;;7.93;;
23115;SDS011;11727;52.134;5.052;2022-11-20T11:02:56;19.45;;;8.10;;
23115;SDS011;11727;52.134;5.052;2022-11-20T11:08:05;21.20;;;8.27;;
23115;SDS011;11727;52.134;5.052;2022-11-20T11:10:54;19.50;;;8.60;;
23115;SDS011;11727;52.134;5.052;2022-11-20T11:13:29;20.20;;;9.98;;
23115;SDS011;11727;52.134;5.052;2022-11-20T11:15:56;23.55;;;7.97;;
23115;SDS011;11727;52.134;5.052;2022-11-20T11:20:52;23.33;;;9.15;;
23115;SDS011;11727;52.134;5.052;2022-11-20T11:23:35;30.00;;;9.68;;
23115;SDS011;11727;52.134;5.052;2022-11-20T11:26:19;17.45;;;7.30;;
23115;SDS011;11727;52.134;5.052;2022-11-20T11:29:02;25.83;;;10.32;;
23115;SDS011;11727;52.134;5.052;2022-11-20T11:31:42;23.10;;;8.95;;
23115;SDS011;11727;52.134;5.052;2022-11-20T11:34:11;28.38;;;9.40;;
23115;SDS011;11727;52.134;5.052;2022-11-20T11:36:41;22.00;;;8.07;;
23115;SDS011;11727;52.134;5.052;2022-11-20T11:39:14;25.55;;;9.75;;
23115;SDS011;11727;52.134;5.052;2022-11-20T11:41:42;29.05;;;9.73;;
23115;SDS011;11727;52.134;5.052;2022-11-20T11:47:00;22.05;;;9.75;;
23115;SDS011;11727;52.134;5.052;2022-11-20T11:49:28;28.55;;;9.88;;
23115;SDS011;11727;52.134;5.052;2022-11-20T11:52:02;27.92;;;10.98;;
23115;SDS011;11727;52.134;5.052;2022-11-20T11:54:58;30.25;;;11.02;;
23115;SDS011;11727;52.134;5.052;2022-11-20T11:57:39;17.05;;;7.70;;
23115;SDS011;11727;52.134;5.052;2022-11-20T12:00:22;24.00;;;10.13;;
23115;SDS011;11727;52.134;5.052;2022-11-20T12:02:57;25.80;;;9.98;;
23115;SDS011;11727;52.134;5.052;2022-11-20T12:05:37;31.75;;;11.98;;
23115;SDS011;11727;52.134;5.052;2022-11-20T12:11:10;30.98;;;10.63;;
23115;SDS011;11727;52.134;5.052;2022-11-20T12:16:49;24.00;;;9.68;;
23115;SDS011;11727;52.134;5.052;2022-11-20T12:19:17;28.98;;;11.43;;
23115;SDS011;11727;52.134;5.052;2022-11-20T12:30:25;28.02;;;10.98;;
23115;SDS011;11727;52.134;5.052;2022-11-20T12:44:38;23.27;;;9.57;;
23115;SDS011;11727;52.134;5.052;2022-11-20T12:50:34;31.33;;;11.30;;
23115;SDS011;11727;52.134;5.052;2022-11-20T12:53:16;30.90;;;11.50;;
23115;SDS011;11727;52.134;5.052;2022-11-20T12:56:01;22.85;;;10.07;;
23115;SDS011;11727;52.134;5.052;2022-11-20T13:01:29;25.88;;;11.90;;
23115;SDS011;11727;52.134;5.052;2022-11-20T13:04:23;29.48;;;11.40;;
23115;SDS011;11727;52.134;5.052;2022-11-20T13:07:01;29.00;;;11.38;;
23115;SDS011;11727;52.134;5.052;2022-11-20T13:09:29;28.50;;;11.38;;
23115;SDS011;11727;52.134;5.052;2022-11-20T13:12:11;27.00;;;10.85;;
23115;SDS011;11727;52.134;5.052;2022-11-20T13:14:53;28.48;;;10.77;;
23115;SDS011;11727;52.134;5.052;2022-11-20T13:17:34;25.75;;;11.02;;
23115;SDS011;11727;52.134;5.052;2022-11-20T13:20:13;27.85;;;9.95;;
23115;SDS011;11727;52.134;5.052;2022-11-20T13:22:45;28.70;;;10.30;;
23115;SDS011;11727;52.134;5.052;2022-11-20T13:28:02;32.25;;;10.65;;
23115;SDS011;11727;52.134;5.052;2022-11-20T13:30:52;35.90;;;11.68;;
23115;SDS011;11727;52.134;5.052;2022-11-20T13:33:22;31.33;;;11.27;;
23115;SDS011;11727;52.134;5.052;2022-11-20T13:35:58;32.08;;;11.43;;
23115;SDS011;11727;52.134;5.052;2022-11-20T13:38:25;32.78;;;11.05;;
23115;SDS011;11727;52.134;5.052;2022-11-20T13:46:03;33.55;;;11.57;;
23115;SDS011;11727;52.134;5.052;2022-11-20T13:48:33;33.35;;;10.93;;
23115;SDS011;11727;52.134;5.052;2022-11-20T13:51:23;33.53;;;11.18;;
23115;SDS011;11727;52.134;5.052;2022-11-20T13:54:04;26.90;;;11.43;;
23115;SDS011;11727;52.134;5.052;2022-11-20T13:59:36;33.92;;;12.15;;
23115;SDS011;11727;52.134;5.052;2022-11-20T14:02:14;40.10;;;12.95;;
23115;SDS011;11727;52.134;5.052;2022-11-20T14:04:44;39.63;;;12.20;;
23115;SDS011;11727;52.134;5.052;2022-11-20T14:07:12;28.23;;;11.80;;
23115;SDS011;11727;52.134;5.052;2022-11-20T14:09:38;34.83;;;11.98;;
23115;SDS011;11727;52.134;5.052;2022-11-20T14:12:12;32.13;;;11.82;;
23115;SDS011;11727;52.134;5.052;2022-11-20T14:14:47;42.55;;;13.90;;
23115;SDS011;11727;52.134;5.052;2022-11-20T14:17:19;30.10;;;11.32;;
23115;SDS011;11727;52.134;5.052;2022-11-20T14:19:59;33.80;;;12.05;;
23115;SDS011;11727;52.134;5.052;2022-11-20T14:22:30;32.90;;;12.32;;
23115;SDS011;11727;52.134;5.052;2022-11-20T14:27:50;33.88;;;12.50;;
23115;SDS011;11727;52.134;5.052;2022-11-20T14:30:22;33.17;;;12.23;;
23115;SDS011;11727;52.134;5.052;2022-11-20T14:33:14;34.58;;;12.88;;
23115;SDS011;11727;52.134;5.052;2022-11-20T14:35:44;31.60;;;13.10;;
23115;SDS011;11727;52.134;5.052;2022-11-20T14:38:12;35.42;;;12.05;;
23115;SDS011;11727;52.134;5.052;2022-11-20T14:40:40;30.77;;;12.43;;
23115;SDS011;11727;52.134;5.052;2022-11-20T14:43:17;35.22;;;12.63;;
23115;SDS011;11727;52.134;5.052;2022-11-20T14:46:00;40.88;;;13.55;;
23115;SDS011;11727;52.134;5.052;2022-11-20T14:48:29;42.10;;;14.05;;
23115;SDS011;11727;52.134;5.052;2022-11-20T14:51:03;31.58;;;12.00;;
23115;SDS011;11727;52.134;5.052;2022-11-20T14:53:28;35.05;;;13.32;;
23115;SDS011;11727;52.134;5.052;2022-11-20T14:55:55;38.58;;;12.85;;
23115;SDS011;11727;52.134;5.052;2022-11-20T14:58:32;30.23;;;10.77;;
23115;SDS011;11727;52.134;5.052;2022-11-20T15:00:59;34.40;;;12.60;;
23115;SDS011;11727;52.134;5.052;2022-11-20T15:03:34;42.22;;;13.75;;
23115;SDS011;11727;52.134;5.052;2022-11-20T15:06:01;35.20;;;12.85;;
23115;SDS011;11727;52.134;5.052;2022-11-20T15:08:28;35.10;;;13.63;;
23115;SDS011;11727;52.134;5.052;2022-11-20T15:10:54;29.73;;;13.30;;
23115;SDS011;11727;52.134;5.052;2022-11-20T15:15:55;30.65;;;11.88;;
23115;SDS011;11727;52.134;5.052;2022-11-20T15:18:38;32.22;;;11.77;;
23115;SDS011;11727;52.134;5.052;2022-11-20T15:21:13;24.55;;;10.88;;
23115;SDS011;11727;52.134;5.052;2022-11-20T15:23:40;30.40;;;11.52;;
23115;SDS011;11727;52.134;5.052;2022-11-20T15:26:06;33.10;;;11.75;;
23115;SDS011;11727;52.134;5.052;2022-11-20T15:28:34;32.50;;;12.38;;
23115;SDS011;11727;52.134;5.052;2022-11-20T15:31:04;34.83;;;10.93;;
23115;SDS011;11727;52.134;5.052;2022-11-20T15:33:31;30.45;;;12.80;;
23115;SDS011;11727;52.134;5.052;2022-11-20T15:35:57;31.88;;;13.48;;
23115;SDS011;11727;52.134;5.052;2022-11-20T15:38:23;30.42;;;11.98;;
23115;SDS011;11727;52.134;5.052;2022-11-20T15:40:48;27.65;;;11.75;;
23115;SDS011;11727;52.134;5.052;2022-11-20T15:43:14;36.20;;;11.75;;
23115;SDS011;11727;52.134;5.052;2022-11-20T15:45:47;31.67;;;13.15;;
23115;SDS011;11727;52.134;5.052;2022-11-20T15:50:47;29.85;;;11.93;;
23115;SDS011;11727;52.134;5.052;2022-11-20T15:53:17;28.13;;;11.27;;
23115;SDS011;11727;52.134;5.052;2022-11-20T15:55:43;34.38;;;12.05;;
23115;SDS011;11727;52.134;5.052;2022-11-20T15:58:09;26.98;;;11.43;;
23115;SDS011;11727;52.134;5.052;2022-11-20T16:00:34;24.92;;;10.77;;
23115;SDS011;11727;52.134;5.052;2022-11-20T16:03:00;27.48;;;11.25;;
23115;SDS011;11727;52.134;5.052;2022-11-20T16:05:28;26.88;;;10.55;;
23115;SDS011;11727;52.134;5.052;2022-11-20T16:07:55;27.80;;;10.95;;
23115;SDS011;11727;52.134;5.052;2022-11-20T16:10:21;21.42;;;10.93;;
23115;SDS011;11727;52.134;5.052;2022-11-20T16:12:47;26.50;;;9.05;;
23115;SDS011;11727;52.134;5.052;2022-11-20T16:15:32;26.95;;;9.98;;
23115;SDS011;11727;52.134;5.052;2022-11-20T16:18:10;30.38;;;11.95;;
23115;SDS011;11727;52.134;5.052;2022-11-20T16:20:37;26.95;;;10.18;;
23115;SDS011;11727;52.134;5.052;2022-11-20T16:23:03;20.98;;;9.45;;
23115;SDS011;11727;52.134;5.052;2022-11-20T16:25:29;28.27;;;10.50;;
23115;SDS011;11727;52.134;5.052;2022-11-20T16:27:55;24.75;;;10.55;;
23115;SDS011;11727;52.134;5.052;2022-11-20T16:30:20;21.30;;;10.13;;
23115;SDS011;11727;52.134;5.052;2022-11-20T16:32:46;24.73;;;10.43;;